sensor_id;sensor_type;location;lat;lon;timestamp;P1;durP1;ratioP1;P2;durP2;ratioP2
8626;SDS011;4351;51.422;6.794;2023-06-14T00:02:10;10.07;;;6.27;;
8626;SDS011;4351;51.422;6.794;2023-06-14T00:04:38;8.57;;;6.00;;
8626;SDS011;4351;51.422;6.794;2023-06-14T00:07:08;10.40;;;6.50;;
8626;SDS011;4351;51.422;6.794;2023-06-14T00:09:39;8.93;;;6.47;;
8626;SDS011;4351;51.422;6.794;2023-06-14T00:12:07;7.47;;;6.10;;
8626;SDS011;4351;51.422;6.794;2023-06-14T00:14:35;9.83;;;6.67;;
8626;SDS011;4351;51.422;6.794;2023-06-14T00:17:03;7.23;;;6.13;;
8626;SDS011;4351;51.422;6.794;2023-06-14T00:19:35;8.53;;;6.10;;
8626;SDS011;4351;51.422;6.794;2023-06-14T00:22:03;7.27;;;6.50;;
8626;SDS011;4351;51.422;6.794;2023-06-14T00:24:31;7.60;;;6.17;;
8626;SDS011;4351;51.422;6.794;2023-06-14T00:26:59;9.00;;;6.40;;
8626;SDS011;4351;51.422;6.794;2023-06-14T00:29:28;9.10;;;6.20;;
8626;SDS011;4351;51.422;6.794;2023-06-14T00:31:56;8.10;;;5.90;;
8626;SDS011;4351;51.422;6.794;2023-06-14T00:34:25;9.27;;;6.30;;
8626;SDS011;4351;51.422;6.794;2023-06-14T00:36:55;7.53;;;5.97;;
8626;SDS011;4351;51.422;6.794;2023-06-14T00:39:22;9.53;;;6.63;;
8626;SDS011;4351;51.422;6.794;2023-06-14T00:41:50;9.20;;;6.97;;
8626;SDS011;4351;51.422;6.794;2023-06-14T00:44:19;7.70;;;6.57;;
8626;SDS011;4351;51.422;6.794;2023-06-14T00:46:47;7.77;;;6.20;;
8626;SDS011;4351;51.422;6.794;2023-06-14T00:49:16;8.83;;;6.40;;
8626;SDS011;4351;51.422;6.794;2023-06-14T00:51:45;7.83;;;6.30;;
8626;SDS011;4351;51.422;6.794;2023-06-14T00:54:14;7.80;;;6.40;;
8626;SDS011;4351;51.422;6.794;2023-06-14T00:56:42;6.50;;;5.87;;
8626;SDS011;4351;51.422;6.794;2023-06-14T00:59:11;8.20;;;5.87;;
8626;SDS011;4351;51.422;6.794;2023-06-14T01:01:39;7.23;;;6.10;;
8626;SDS011;4351;51.422;6.794;2023-06-14T01:04:07;7.77;;;6.47;;
8626;SDS011;4351;51.422;6.794;2023-06-14T01:06:38;9.53;;;6.23;;
8626;SDS011;4351;51.422;6.794;2023-06-14T01:09:21;8.40;;;6.30;;
8626;SDS011;4351;51.422;6.794;2023-06-14T01:12:01;7.47;;;5.77;;
8626;SDS011;4351;51.422;6.794;2023-06-14T01:14:34;7.73;;;5.80;;
8626;SDS011;4351;51.422;6.794;2023-06-14T01:17:04;7.17;;;6.10;;
8626;SDS011;4351;51.422;6.794;2023-06-14T01:19:34;6.43;;;5.43;;
8626;SDS011;4351;51.422;6.794;2023-06-14T01:22:02;8.27;;;5.87;;
8626;SDS011;4351;51.422;6.794;2023-06-14T01:24:32;7.90;;;6.10;;
8626;SDS011;4351;51.422;6.794;2023-06-14T01:27:01;7.87;;;6.00;;
8626;SDS011;4351;51.422;6.794;2023-06-14T01:29:30;9.57;;;5.63;;
8626;SDS011;4351;51.422;6.794;2023-06-14T01:31:59;10.83;;;6.67;;
8626;SDS011;4351;51.422;6.794;2023-06-14T01:34:30;7.90;;;5.50;;
8626;SDS011;4351;51.422;6.794;2023-06-14T01:36:58;8.73;;;5.57;;
8626;SDS011;4351;51.422;6.794;2023-06-14T01:39:30;6.27;;;5.67;;
8626;SDS011;4351;51.422;6.794;2023-06-14T01:41:59;6.10;;;5.47;;
8626;SDS011;4351;51.422;6.794;2023-06-14T01:44:28;8.10;;;6.17;;
8626;SDS011;4351;51.422;6.794;2023-06-14T01:47:00;6.50;;;5.60;;
8626;SDS011;4351;51.422;6.794;2023-06-14T01:49:28;8.80;;;5.23;;
8626;SDS011;4351;51.422;6.794;2023-06-14T01:51:56;8.67;;;5.43;;
8626;SDS011;4351;51.422;6.794;2023-06-14T01:54:24;8.33;;;5.73;;
8626;SDS011;4351;51.422;6.794;2023-06-14T01:56:53;6.67;;;5.93;;
8626;SDS011;4351;51.422;6.794;2023-06-14T01:59:21;6.87;;;5.40;;
8626;SDS011;4351;51.422;6.794;2023-06-14T02:01:49;7.40;;;5.47;;
8626;SDS011;4351;51.422;6.794;2023-06-14T02:04:18;7.43;;;5.80;;
8626;SDS011;4351;51.422;6.794;2023-06-14T02:06:46;6.27;;;5.27;;
8626;SDS011;4351;51.422;6.794;2023-06-14T02:09:14;8.23;;;5.97;;
8626;SDS011;4351;51.422;6.794;2023-06-14T02:11:42;8.80;;;5.73;;
8626;SDS011;4351;51.422;6.794;2023-06-14T02:14:11;7.50;;;5.60;;
8626;SDS011;4351;51.422;6.794;2023-06-14T02:16:41;8.57;;;5.77;;
8626;SDS011;4351;51.422;6.794;2023-06-14T02:19:14;8.23;;;5.43;;
8626;SDS011;4351;51.422;6.794;2023-06-14T02:21:42;8.47;;;5.60;;
8626;SDS011;4351;51.422;6.794;2023-06-14T02:24:11;9.23;;;5.93;;
8626;SDS011;4351;51.422;6.794;2023-06-14T02:26:40;6.93;;;5.23;;
8626;SDS011;4351;51.422;6.794;2023-06-14T02:29:14;6.43;;;5.00;;
8626;SDS011;4351;51.422;6.794;2023-06-14T02:31:42;7.83;;;5.60;;
8626;SDS011;4351;51.422;6.794;2023-06-14T02:34:11;6.00;;;5.00;;
8626;SDS011;4351;51.422;6.794;2023-06-14T02:36:39;8.80;;;5.63;;
8626;SDS011;4351;51.422;6.794;2023-06-14T02:39:08;8.13;;;5.50;;
8626;SDS011;4351;51.422;6.794;2023-06-14T02:41:37;5.20;;;4.50;;
8626;SDS011;4351;51.422;6.794;2023-06-14T02:44:05;8.70;;;5.57;;
8626;SDS011;4351;51.422;6.794;2023-06-14T02:46:34;8.63;;;5.10;;
8626;SDS011;4351;51.422;6.794;2023-06-14T02:49:02;11.07;;;5.70;;
8626;SDS011;4351;51.422;6.794;2023-06-14T02:51:30;7.83;;;5.20;;
8626;SDS011;4351;51.422;6.794;2023-06-14T02:53:58;7.53;;;5.10;;
8626;SDS011;4351;51.422;6.794;2023-06-14T02:56:27;6.83;;;5.10;;
8626;SDS011;4351;51.422;6.794;2023-06-14T02:58:56;8.53;;;5.60;;
8626;SDS011;4351;51.422;6.794;2023-06-14T03:01:24;8.63;;;6.10;;
8626;SDS011;4351;51.422;6.794;2023-06-14T03:04:06;7.13;;;5.40;;
8626;SDS011;4351;51.422;6.794;2023-06-14T03:06:37;10.67;;;8.20;;
8626;SDS011;4351;51.422;6.794;2023-06-14T03:09:06;9.40;;;5.70;;
8626;SDS011;4351;51.422;6.794;2023-06-14T03:11:38;7.57;;;5.30;;
8626;SDS011;4351;51.422;6.794;2023-06-14T03:14:06;6.50;;;5.20;;
8626;SDS011;4351;51.422;6.794;2023-06-14T03:16:36;6.50;;;5.00;;
8626;SDS011;4351;51.422;6.794;2023-06-14T03:19:04;7.30;;;4.93;;
8626;SDS011;4351;51.422;6.794;2023-06-14T03:21:34;8.03;;;5.10;;
8626;SDS011;4351;51.422;6.794;2023-06-14T03:24:03;7.23;;;5.20;;
8626;SDS011;4351;51.422;6.794;2023-06-14T03:26:33;5.97;;;4.87;;
8626;SDS011;4351;51.422;6.794;2023-06-14T03:29:03;8.83;;;5.77;;
8626;SDS011;4351;51.422;6.794;2023-06-14T03:31:31;8.17;;;4.73;;
8626;SDS011;4351;51.422;6.794;2023-06-14T03:34:02;7.17;;;4.60;;
8626;SDS011;4351;51.422;6.794;2023-06-14T03:36:30;7.97;;;5.20;;
8626;SDS011;4351;51.422;6.794;2023-06-14T03:39:01;6.60;;;4.80;;
8626;SDS011;4351;51.422;6.794;2023-06-14T03:41:29;8.70;;;5.10;;
8626;SDS011;4351;51.422;6.794;2023-06-14T03:43:57;9.13;;;5.03;;
8626;SDS011;4351;51.422;6.794;2023-06-14T03:46:25;5.80;;;4.90;;
8626;SDS011;4351;51.422;6.794;2023-06-14T03:48:53;7.17;;;5.10;;
8626;SDS011;4351;51.422;6.794;2023-06-14T03:51:22;9.57;;;5.20;;
8626;SDS011;4351;51.422;6.794;2023-06-14T03:53:51;7.93;;;5.20;;
8626;SDS011;4351;51.422;6.794;2023-06-14T03:56:26;6.60;;;5.03;;
8626;SDS011;4351;51.422;6.794;2023-06-14T03:58:54;6.43;;;4.97;;
8626;SDS011;4351;51.422;6.794;2023-06-14T04:01:25;6.47;;;4.90;;
8626;SDS011;4351;51.422;6.794;2023-06-14T04:03:58;10.17;;;5.20;;
8626;SDS011;4351;51.422;6.794;2023-06-14T04:06:28;8.13;;;4.73;;
8626;SDS011;4351;51.422;6.794;2023-06-14T04:08:59;8.03;;;5.00;;
8626;SDS011;4351;51.422;6.794;2023-06-14T04:11:31;8.23;;;5.00;;
8626;SDS011;4351;51.422;6.794;2023-06-14T04:13:59;8.80;;;4.80;;
8626;SDS011;4351;51.422;6.794;2023-06-14T04:16:28;6.50;;;4.90;;
8626;SDS011;4351;51.422;6.794;2023-06-14T04:18:58;6.63;;;4.70;;
8626;SDS011;4351;51.422;6.794;2023-06-14T04:21:25;7.67;;;4.70;;
8626;SDS011;4351;51.422;6.794;2023-06-14T04:23:57;8.73;;;4.90;;
8626;SDS011;4351;51.422;6.794;2023-06-14T04:26:29;7.13;;;4.73;;
8626;SDS011;4351;51.422;6.794;2023-06-14T04:29:01;8.03;;;4.90;;
8626;SDS011;4351;51.422;6.794;2023-06-14T04:31:33;8.20;;;4.67;;
8626;SDS011;4351;51.422;6.794;2023-06-14T04:34:07;7.53;;;4.83;;
8626;SDS011;4351;51.422;6.794;2023-06-14T04:36:36;7.47;;;4.80;;
8626;SDS011;4351;51.422;6.794;2023-06-14T04:39:05;9.27;;;4.80;;
8626;SDS011;4351;51.422;6.794;2023-06-14T04:41:33;8.57;;;4.73;;
8626;SDS011;4351;51.422;6.794;2023-06-14T04:44:03;7.87;;;4.37;;
8626;SDS011;4351;51.422;6.794;2023-06-14T04:46:36;6.97;;;4.37;;
8626;SDS011;4351;51.422;6.794;2023-06-14T04:49:13;5.80;;;4.23;;
8626;SDS011;4351;51.422;6.794;2023-06-14T04:51:42;7.17;;;4.40;;
8626;SDS011;4351;51.422;6.794;2023-06-14T04:54:11;6.37;;;3.90;;
8626;SDS011;4351;51.422;6.794;2023-06-14T04:56:41;6.47;;;4.40;;
8626;SDS011;4351;51.422;6.794;2023-06-14T04:59:12;6.43;;;4.33;;
8626;SDS011;4351;51.422;6.794;2023-06-14T05:01:41;8.23;;;4.03;;
8626;SDS011;4351;51.422;6.794;2023-06-14T05:04:14;13.63;;;4.77;;
8626;SDS011;4351;51.422;6.794;2023-06-14T05:06:44;9.03;;;4.40;;
8626;SDS011;4351;51.422;6.794;2023-06-14T05:09:14;7.10;;;4.43;;
8626;SDS011;4351;51.422;6.794;2023-06-14T05:11:43;5.87;;;4.10;;
8626;SDS011;4351;51.422;6.794;2023-06-14T05:14:13;7.40;;;4.30;;
8626;SDS011;4351;51.422;6.794;2023-06-14T05:16:41;6.67;;;4.07;;
8626;SDS011;4351;51.422;6.794;2023-06-14T05:19:10;9.13;;;4.50;;
8626;SDS011;4351;51.422;6.794;2023-06-14T05:21:38;7.60;;;4.77;;
8626;SDS011;4351;51.422;6.794;2023-06-14T05:24:09;6.20;;;4.47;;
8626;SDS011;4351;51.422;6.794;2023-06-14T05:26:37;7.60;;;4.03;;
8626;SDS011;4351;51.422;6.794;2023-06-14T05:29:05;8.03;;;4.70;;
8626;SDS011;4351;51.422;6.794;2023-06-14T05:31:34;4.33;;;3.73;;
8626;SDS011;4351;51.422;6.794;2023-06-14T05:34:03;9.33;;;4.67;;
8626;SDS011;4351;51.422;6.794;2023-06-14T05:36:31;11.90;;;4.60;;
8626;SDS011;4351;51.422;6.794;2023-06-14T05:38:59;6.17;;;3.90;;
8626;SDS011;4351;51.422;6.794;2023-06-14T05:41:29;10.67;;;4.30;;
8626;SDS011;4351;51.422;6.794;2023-06-14T05:43:57;6.77;;;4.37;;
8626;SDS011;4351;51.422;6.794;2023-06-14T05:46:26;9.67;;;4.50;;
8626;SDS011;4351;51.422;6.794;2023-06-14T05:48:56;9.43;;;4.77;;
8626;SDS011;4351;51.422;6.794;2023-06-14T05:51:24;6.07;;;4.10;;
8626;SDS011;4351;51.422;6.794;2023-06-14T05:53:53;9.87;;;4.23;;
8626;SDS011;4351;51.422;6.794;2023-06-14T05:56:21;9.80;;;4.47;;
8626;SDS011;4351;51.422;6.794;2023-06-14T05:58:49;7.73;;;4.20;;
8626;SDS011;4351;51.422;6.794;2023-06-14T06:01:17;11.60;;;4.13;;
8626;SDS011;4351;51.422;6.794;2023-06-14T06:03:45;8.93;;;4.60;;
8626;SDS011;4351;51.422;6.794;2023-06-14T06:06:15;6.53;;;4.27;;
8626;SDS011;4351;51.422;6.794;2023-06-14T06:08:43;10.17;;;4.13;;
8626;SDS011;4351;51.422;6.794;2023-06-14T06:11:11;8.30;;;4.13;;
8626;SDS011;4351;51.422;6.794;2023-06-14T06:13:39;6.77;;;3.83;;
8626;SDS011;4351;51.422;6.794;2023-06-14T06:16:07;12.33;;;4.10;;
8626;SDS011;4351;51.422;6.794;2023-06-14T06:18:35;14.30;;;4.77;;
8626;SDS011;4351;51.422;6.794;2023-06-14T06:21:03;9.43;;;4.40;;
8626;SDS011;4351;51.422;6.794;2023-06-14T06:23:33;8.17;;;4.43;;
8626;SDS011;4351;51.422;6.794;2023-06-14T06:26:02;9.83;;;4.17;;
8626;SDS011;4351;51.422;6.794;2023-06-14T06:28:29;5.70;;;4.00;;
8626;SDS011;4351;51.422;6.794;2023-06-14T06:30:57;6.00;;;4.33;;
8626;SDS011;4351;51.422;6.794;2023-06-14T06:33:29;8.57;;;4.00;;
8626;SDS011;4351;51.422;6.794;2023-06-14T06:35:57;6.30;;;3.97;;
8626;SDS011;4351;51.422;6.794;2023-06-14T06:38:25;9.60;;;4.23;;
8626;SDS011;4351;51.422;6.794;2023-06-14T06:40:54;4.77;;;3.73;;
8626;SDS011;4351;51.422;6.794;2023-06-14T06:43:22;11.80;;;4.07;;
8626;SDS011;4351;51.422;6.794;2023-06-14T06:45:50;6.73;;;3.57;;
8626;SDS011;4351;51.422;6.794;2023-06-14T06:48:18;9.57;;;4.00;;
8626;SDS011;4351;51.422;6.794;2023-06-14T06:50:46;9.40;;;4.10;;
8626;SDS011;4351;51.422;6.794;2023-06-14T06:53:14;8.60;;;3.17;;
8626;SDS011;4351;51.422;6.794;2023-06-14T06:55:53;9.10;;;2.93;;
8626;SDS011;4351;51.422;6.794;2023-06-14T06:58:21;8.23;;;3.00;;
8626;SDS011;4351;51.422;6.794;2023-06-14T07:00:49;4.03;;;2.70;;
8626;SDS011;4351;51.422;6.794;2023-06-14T07:03:17;4.30;;;2.80;;
8626;SDS011;4351;51.422;6.794;2023-06-14T07:05:46;6.53;;;2.63;;
8626;SDS011;4351;51.422;6.794;2023-06-14T07:08:14;5.80;;;2.50;;
8626;SDS011;4351;51.422;6.794;2023-06-14T07:10:42;4.50;;;2.47;;
8626;SDS011;4351;51.422;6.794;2023-06-14T07:13:11;3.10;;;2.30;;
8626;SDS011;4351;51.422;6.794;2023-06-14T07:15:40;5.23;;;2.40;;
8626;SDS011;4351;51.422;6.794;2023-06-14T07:18:08;4.43;;;2.20;;
8626;SDS011;4351;51.422;6.794;2023-06-14T07:20:36;6.97;;;2.20;;
8626;SDS011;4351;51.422;6.794;2023-06-14T07:23:05;5.07;;;2.17;;
8626;SDS011;4351;51.422;6.794;2023-06-14T07:25:32;7.50;;;2.50;;
8626;SDS011;4351;51.422;6.794;2023-06-14T07:28:00;4.50;;;2.23;;
8626;SDS011;4351;51.422;6.794;2023-06-14T07:30:30;7.00;;;2.83;;
8626;SDS011;4351;51.422;6.794;2023-06-14T07:32:57;11.90;;;2.70;;
8626;SDS011;4351;51.422;6.794;2023-06-14T07:35:26;8.40;;;2.20;;
8626;SDS011;4351;51.422;6.794;2023-06-14T07:37:54;3.77;;;2.50;;
8626;SDS011;4351;51.422;6.794;2023-06-14T07:40:22;4.53;;;2.17;;
8626;SDS011;4351;51.422;6.794;2023-06-14T07:42:50;5.13;;;2.10;;
8626;SDS011;4351;51.422;6.794;2023-06-14T07:45:18;5.03;;;2.40;;
8626;SDS011;4351;51.422;6.794;2023-06-14T07:47:47;3.30;;;1.90;;
8626;SDS011;4351;51.422;6.794;2023-06-14T07:50:16;5.27;;;1.93;;
8626;SDS011;4351;51.422;6.794;2023-06-14T07:52:44;5.30;;;2.43;;
8626;SDS011;4351;51.422;6.794;2023-06-14T07:55:13;2.93;;;2.00;;
8626;SDS011;4351;51.422;6.794;2023-06-14T07:57:42;4.23;;;1.90;;
8626;SDS011;4351;51.422;6.794;2023-06-14T08:00:10;4.07;;;2.10;;
8626;SDS011;4351;51.422;6.794;2023-06-14T08:02:41;4.13;;;2.10;;
8626;SDS011;4351;51.422;6.794;2023-06-14T08:05:11;7.93;;;2.43;;
8626;SDS011;4351;51.422;6.794;2023-06-14T08:07:40;5.00;;;2.13;;
8626;SDS011;4351;51.422;6.794;2023-06-14T08:10:09;4.50;;;2.37;;
8626;SDS011;4351;51.422;6.794;2023-06-14T08:12:37;3.77;;;2.33;;
8626;SDS011;4351;51.422;6.794;2023-06-14T08:15:05;4.97;;;2.33;;
8626;SDS011;4351;51.422;6.794;2023-06-14T08:17:42;7.17;;;2.03;;
8626;SDS011;4351;51.422;6.794;2023-06-14T08:20:12;6.00;;;2.37;;
8626;SDS011;4351;51.422;6.794;2023-06-14T08:22:43;5.73;;;2.23;;
8626;SDS011;4351;51.422;6.794;2023-06-14T08:25:13;4.83;;;2.57;;
8626;SDS011;4351;51.422;6.794;2023-06-14T08:27:41;5.30;;;2.30;;
8626;SDS011;4351;51.422;6.794;2023-06-14T08:30:10;6.47;;;2.67;;
8626;SDS011;4351;51.422;6.794;2023-06-14T08:32:39;5.20;;;2.30;;
8626;SDS011;4351;51.422;6.794;2023-06-14T08:35:07;4.33;;;2.20;;
8626;SDS011;4351;51.422;6.794;2023-06-14T08:37:39;3.07;;;2.20;;
8626;SDS011;4351;51.422;6.794;2023-06-14T08:40:12;3.23;;;2.27;;
8626;SDS011;4351;51.422;6.794;2023-06-14T08:42:47;7.23;;;2.20;;
8626;SDS011;4351;51.422;6.794;2023-06-14T08:45:18;6.17;;;2.50;;
8626;SDS011;4351;51.422;6.794;2023-06-14T08:47:49;3.70;;;2.33;;
8626;SDS011;4351;51.422;6.794;2023-06-14T08:50:19;5.43;;;2.03;;
8626;SDS011;4351;51.422;6.794;2023-06-14T08:52:56;3.90;;;2.20;;
8626;SDS011;4351;51.422;6.794;2023-06-14T08:55:26;2.97;;;2.10;;
8626;SDS011;4351;51.422;6.794;2023-06-14T08:57:57;3.63;;;2.17;;
8626;SDS011;4351;51.422;6.794;2023-06-14T09:00:26;9.37;;;2.20;;
8626;SDS011;4351;51.422;6.794;2023-06-14T09:02:55;3.17;;;2.03;;
8626;SDS011;4351;51.422;6.794;2023-06-14T09:05:25;3.17;;;2.20;;
8626;SDS011;4351;51.422;6.794;2023-06-14T09:07:53;3.33;;;2.33;;
8626;SDS011;4351;51.422;6.794;2023-06-14T09:10:30;4.07;;;2.30;;
8626;SDS011;4351;51.422;6.794;2023-06-14T09:13:01;4.77;;;2.20;;
8626;SDS011;4351;51.422;6.794;2023-06-14T09:15:29;2.60;;;2.10;;
8626;SDS011;4351;51.422;6.794;2023-06-14T09:17:58;5.33;;;2.57;;
8626;SDS011;4351;51.422;6.794;2023-06-14T09:20:29;5.33;;;2.87;;
8626;SDS011;4351;51.422;6.794;2023-06-14T09:23:00;3.37;;;2.60;;
8626;SDS011;4351;51.422;6.794;2023-06-14T09:25:28;6.50;;;2.60;;
8626;SDS011;4351;51.422;6.794;2023-06-14T09:28:06;3.00;;;2.40;;
8626;SDS011;4351;51.422;6.794;2023-06-14T09:30:35;4.37;;;2.27;;
8626;SDS011;4351;51.422;6.794;2023-06-14T09:33:03;3.67;;;2.20;;
8626;SDS011;4351;51.422;6.794;2023-06-14T09:35:31;2.60;;;2.23;;
8626;SDS011;4351;51.422;6.794;2023-06-14T09:38:01;4.73;;;2.27;;
8626;SDS011;4351;51.422;6.794;2023-06-14T09:40:30;4.00;;;2.40;;
8626;SDS011;4351;51.422;6.794;2023-06-14T09:43:02;4.80;;;1.80;;
8626;SDS011;4351;51.422;6.794;2023-06-14T09:45:34;5.73;;;1.90;;
8626;SDS011;4351;51.422;6.794;2023-06-14T09:48:03;3.70;;;1.90;;
8626;SDS011;4351;51.422;6.794;2023-06-14T09:50:33;2.10;;;1.90;;
8626;SDS011;4351;51.422;6.794;2023-06-14T09:53:05;3.50;;;1.90;;
8626;SDS011;4351;51.422;6.794;2023-06-14T09:55:35;4.13;;;1.60;;
8626;SDS011;4351;51.422;6.794;2023-06-14T09:58:05;3.57;;;1.77;;
8626;SDS011;4351;51.422;6.794;2023-06-14T10:00:35;3.80;;;1.80;;
8626;SDS011;4351;51.422;6.794;2023-06-14T10:03:05;5.30;;;1.90;;
8626;SDS011;4351;51.422;6.794;2023-06-14T10:05:39;4.37;;;1.90;;
8626;SDS011;4351;51.422;6.794;2023-06-14T10:08:13;4.67;;;1.53;;
8626;SDS011;4351;51.422;6.794;2023-06-14T10:10:43;5.43;;;1.87;;
8626;SDS011;4351;51.422;6.794;2023-06-14T10:13:11;7.23;;;1.83;;
8626;SDS011;4351;51.422;6.794;2023-06-14T10:15:43;3.40;;;1.43;;
8626;SDS011;4351;51.422;6.794;2023-06-14T10:18:19;2.87;;;2.00;;
8626;SDS011;4351;51.422;6.794;2023-06-14T10:20:55;3.20;;;1.60;;
8626;SDS011;4351;51.422;6.794;2023-06-14T10:23:32;4.93;;;1.93;;
8626;SDS011;4351;51.422;6.794;2023-06-14T10:26:04;2.40;;;1.60;;
8626;SDS011;4351;51.422;6.794;2023-06-14T10:28:32;2.90;;;1.50;;
8626;SDS011;4351;51.422;6.794;2023-06-14T10:31:05;3.23;;;1.90;;
8626;SDS011;4351;51.422;6.794;2023-06-14T10:33:35;3.57;;;1.60;;
8626;SDS011;4351;51.422;6.794;2023-06-14T10:38:58;3.27;;;1.60;;
8626;SDS011;4351;51.422;6.794;2023-06-14T10:41:29;2.20;;;1.37;;
8626;SDS011;4351;51.422;6.794;2023-06-14T10:44:10;1.93;;;1.30;;
8626;SDS011;4351;51.422;6.794;2023-06-14T10:46:59;2.50;;;1.30;;
8626;SDS011;4351;51.422;6.794;2023-06-14T10:49:36;1.97;;;1.10;;
8626;SDS011;4351;51.422;6.794;2023-06-14T10:52:09;3.10;;;1.40;;
8626;SDS011;4351;51.422;6.794;2023-06-14T10:55:07;11.63;;;2.53;;
8626;SDS011;4351;51.422;6.794;2023-06-14T10:57:50;4.37;;;1.30;;
8626;SDS011;4351;51.422;6.794;2023-06-14T11:00:23;4.00;;;1.20;;
8626;SDS011;4351;51.422;6.794;2023-06-14T11:06:10;3.33;;;1.40;;
8626;SDS011;4351;51.422;6.794;2023-06-14T11:08:56;3.53;;;1.50;;
8626;SDS011;4351;51.422;6.794;2023-06-14T11:11:42;3.93;;;1.43;;
8626;SDS011;4351;51.422;6.794;2023-06-14T11:14:11;1.20;;;1.10;;
8626;SDS011;4351;51.422;6.794;2023-06-14T11:16:40;1.87;;;1.17;;
8626;SDS011;4351;51.422;6.794;2023-06-14T11:19:08;2.13;;;1.17;;
8626;SDS011;4351;51.422;6.794;2023-06-14T11:21:39;2.97;;;1.40;;
8626;SDS011;4351;51.422;6.794;2023-06-14T11:24:09;5.27;;;1.60;;
8626;SDS011;4351;51.422;6.794;2023-06-14T11:26:38;5.20;;;1.30;;
8626;SDS011;4351;51.422;6.794;2023-06-14T11:29:07;2.93;;;1.57;;
8626;SDS011;4351;51.422;6.794;2023-06-14T11:31:35;3.43;;;1.60;;
8626;SDS011;4351;51.422;6.794;2023-06-14T11:34:04;4.53;;;1.60;;
8626;SDS011;4351;51.422;6.794;2023-06-14T11:36:33;3.07;;;1.40;;
8626;SDS011;4351;51.422;6.794;2023-06-14T11:39:02;4.37;;;1.67;;
8626;SDS011;4351;51.422;6.794;2023-06-14T11:41:33;3.50;;;1.70;;
8626;SDS011;4351;51.422;6.794;2023-06-14T11:44:03;3.57;;;1.43;;
8626;SDS011;4351;51.422;6.794;2023-06-14T11:46:34;2.87;;;1.50;;
8626;SDS011;4351;51.422;6.794;2023-06-14T11:49:03;2.43;;;1.50;;
8626;SDS011;4351;51.422;6.794;2023-06-14T11:51:33;3.03;;;1.30;;
8626;SDS011;4351;51.422;6.794;2023-06-14T11:54:02;3.57;;;1.70;;
8626;SDS011;4351;51.422;6.794;2023-06-14T11:56:31;2.33;;;1.60;;
8626;SDS011;4351;51.422;6.794;2023-06-14T11:58:59;3.63;;;1.77;;
8626;SDS011;4351;51.422;6.794;2023-06-14T12:01:29;2.60;;;1.50;;
8626;SDS011;4351;51.422;6.794;2023-06-14T12:03:59;2.90;;;1.27;;
8626;SDS011;4351;51.422;6.794;2023-06-14T12:06:30;2.43;;;1.37;;
8626;SDS011;4351;51.422;6.794;2023-06-14T12:09:05;3.80;;;1.80;;
8626;SDS011;4351;51.422;6.794;2023-06-14T12:11:43;3.53;;;1.33;;
8626;SDS011;4351;51.422;6.794;2023-06-14T12:14:11;4.23;;;1.60;;
8626;SDS011;4351;51.422;6.794;2023-06-14T12:16:39;4.03;;;1.50;;
8626;SDS011;4351;51.422;6.794;2023-06-14T12:19:11;4.53;;;1.80;;
8626;SDS011;4351;51.422;6.794;2023-06-14T12:21:41;2.07;;;1.57;;
8626;SDS011;4351;51.422;6.794;2023-06-14T12:24:11;2.20;;;1.70;;
8626;SDS011;4351;51.422;6.794;2023-06-14T12:26:40;3.90;;;1.77;;
8626;SDS011;4351;51.422;6.794;2023-06-14T12:29:09;5.53;;;1.73;;
8626;SDS011;4351;51.422;6.794;2023-06-14T12:31:39;3.30;;;1.60;;
8626;SDS011;4351;51.422;6.794;2023-06-14T12:34:07;4.33;;;1.97;;
8626;SDS011;4351;51.422;6.794;2023-06-14T12:36:36;2.87;;;1.60;;
8626;SDS011;4351;51.422;6.794;2023-06-14T12:39:11;1.70;;;1.60;;
8626;SDS011;4351;51.422;6.794;2023-06-14T12:41:39;4.07;;;2.20;;
8626;SDS011;4351;51.422;6.794;2023-06-14T12:44:08;4.57;;;1.83;;
8626;SDS011;4351;51.422;6.794;2023-06-14T12:46:37;3.33;;;1.70;;
8626;SDS011;4351;51.422;6.794;2023-06-14T12:49:07;2.77;;;1.80;;
8626;SDS011;4351;51.422;6.794;2023-06-14T12:51:38;3.97;;;2.30;;
8626;SDS011;4351;51.422;6.794;2023-06-14T12:54:07;5.17;;;2.00;;
8626;SDS011;4351;51.422;6.794;2023-06-14T12:56:35;3.70;;;2.10;;
8626;SDS011;4351;51.422;6.794;2023-06-14T12:59:03;5.63;;;1.90;;
8626;SDS011;4351;51.422;6.794;2023-06-14T13:01:32;3.97;;;2.43;;
8626;SDS011;4351;51.422;6.794;2023-06-14T13:04:00;4.50;;;2.33;;
8626;SDS011;4351;51.422;6.794;2023-06-14T13:06:28;4.20;;;2.50;;
8626;SDS011;4351;51.422;6.794;2023-06-14T13:08:59;3.07;;;2.13;;
8626;SDS011;4351;51.422;6.794;2023-06-14T13:11:28;5.57;;;2.10;;
8626;SDS011;4351;51.422;6.794;2023-06-14T13:13:56;5.97;;;2.30;;
8626;SDS011;4351;51.422;6.794;2023-06-14T13:16:31;3.63;;;2.30;;
8626;SDS011;4351;51.422;6.794;2023-06-14T13:19:01;2.40;;;2.20;;
8626;SDS011;4351;51.422;6.794;2023-06-14T13:21:29;4.67;;;2.40;;
8626;SDS011;4351;51.422;6.794;2023-06-14T13:23:58;5.57;;;2.20;;
8626;SDS011;4351;51.422;6.794;2023-06-14T13:26:26;4.87;;;2.80;;
8626;SDS011;4351;51.422;6.794;2023-06-14T13:28:54;3.70;;;2.37;;
8626;SDS011;4351;51.422;6.794;2023-06-14T13:31:22;4.20;;;2.30;;
8626;SDS011;4351;51.422;6.794;2023-06-14T13:33:50;3.60;;;2.37;;
8626;SDS011;4351;51.422;6.794;2023-06-14T13:36:18;2.73;;;2.37;;
8626;SDS011;4351;51.422;6.794;2023-06-14T13:38:46;3.10;;;2.50;;
8626;SDS011;4351;51.422;6.794;2023-06-14T13:41:16;4.07;;;2.10;;
8626;SDS011;4351;51.422;6.794;2023-06-14T13:43:44;3.90;;;2.70;;
8626;SDS011;4351;51.422;6.794;2023-06-14T13:46:12;5.30;;;2.70;;
8626;SDS011;4351;51.422;6.794;2023-06-14T13:48:40;4.73;;;2.57;;
8626;SDS011;4351;51.422;6.794;2023-06-14T13:51:08;4.43;;;2.53;;
8626;SDS011;4351;51.422;6.794;2023-06-14T13:53:38;3.17;;;2.20;;
8626;SDS011;4351;51.422;6.794;2023-06-14T13:56:06;4.03;;;2.27;;
8626;SDS011;4351;51.422;6.794;2023-06-14T13:58:37;3.47;;;2.10;;
8626;SDS011;4351;51.422;6.794;2023-06-14T14:01:05;3.53;;;2.30;;
8626;SDS011;4351;51.422;6.794;2023-06-14T14:03:33;2.60;;;2.30;;
8626;SDS011;4351;51.422;6.794;2023-06-14T14:06:02;4.43;;;2.20;;
8626;SDS011;4351;51.422;6.794;2023-06-14T14:08:32;4.40;;;2.37;;
8626;SDS011;4351;51.422;6.794;2023-06-14T14:10:59;7.33;;;2.80;;
8626;SDS011;4351;51.422;6.794;2023-06-14T14:13:27;5.53;;;2.30;;
8626;SDS011;4351;51.422;6.794;2023-06-14T14:15:57;5.43;;;2.43;;
8626;SDS011;4351;51.422;6.794;2023-06-14T14:18:25;5.70;;;2.30;;
8626;SDS011;4351;51.422;6.794;2023-06-14T14:20:57;2.23;;;2.03;;
8626;SDS011;4351;51.422;6.794;2023-06-14T14:23:25;6.57;;;2.37;;
8626;SDS011;4351;51.422;6.794;2023-06-14T14:25:53;3.97;;;2.37;;
8626;SDS011;4351;51.422;6.794;2023-06-14T14:28:21;5.77;;;2.50;;
8626;SDS011;4351;51.422;6.794;2023-06-14T14:30:50;8.17;;;2.63;;
8626;SDS011;4351;51.422;6.794;2023-06-14T14:33:21;9.40;;;2.80;;
8626;SDS011;4351;51.422;6.794;2023-06-14T14:35:49;3.40;;;2.40;;
8626;SDS011;4351;51.422;6.794;2023-06-14T14:38:17;4.00;;;2.40;;
8626;SDS011;4351;51.422;6.794;2023-06-14T14:40:45;4.07;;;2.40;;
8626;SDS011;4351;51.422;6.794;2023-06-14T14:43:13;4.10;;;2.20;;
8626;SDS011;4351;51.422;6.794;2023-06-14T14:45:41;6.73;;;2.73;;
8626;SDS011;4351;51.422;6.794;2023-06-14T14:48:09;3.27;;;2.17;;
8626;SDS011;4351;51.422;6.794;2023-06-14T14:50:38;3.13;;;2.20;;
8626;SDS011;4351;51.422;6.794;2023-06-14T14:53:06;3.60;;;2.40;;
8626;SDS011;4351;51.422;6.794;2023-06-14T14:55:34;3.93;;;2.37;;
8626;SDS011;4351;51.422;6.794;2023-06-14T14:58:03;5.60;;;2.90;;
8626;SDS011;4351;51.422;6.794;2023-06-14T15:00:33;5.90;;;2.50;;
8626;SDS011;4351;51.422;6.794;2023-06-14T15:03:01;4.57;;;2.40;;
8626;SDS011;4351;51.422;6.794;2023-06-14T15:05:29;3.10;;;2.50;;
8626;SDS011;4351;51.422;6.794;2023-06-14T15:07:58;4.00;;;2.40;;
8626;SDS011;4351;51.422;6.794;2023-06-14T15:10:26;3.60;;;2.30;;
8626;SDS011;4351;51.422;6.794;2023-06-14T15:12:54;3.87;;;2.23;;
8626;SDS011;4351;51.422;6.794;2023-06-14T15:15:22;3.67;;;2.50;;
8626;SDS011;4351;51.422;6.794;2023-06-14T15:17:50;3.53;;;2.50;;
8626;SDS011;4351;51.422;6.794;2023-06-14T15:20:18;4.23;;;2.40;;
8626;SDS011;4351;51.422;6.794;2023-06-14T15:22:46;5.13;;;3.00;;
8626;SDS011;4351;51.422;6.794;2023-06-14T15:25:17;3.27;;;2.80;;
8626;SDS011;4351;51.422;6.794;2023-06-14T15:27:47;4.37;;;2.80;;
8626;SDS011;4351;51.422;6.794;2023-06-14T15:30:15;3.30;;;2.50;;
8626;SDS011;4351;51.422;6.794;2023-06-14T15:32:44;2.87;;;2.27;;
8626;SDS011;4351;51.422;6.794;2023-06-14T15:35:12;7.43;;;2.83;;
8626;SDS011;4351;51.422;6.794;2023-06-14T15:37:40;4.77;;;2.90;;